​ ​

Форум клана ЧПУшников

Информация о пользователе

Привет, Гость! Войдите или зарегистрируйтесь.


Вы здесь » Форум клана ЧПУшников » Лазерные станки


Лазерные станки

Тем 1 страница 80 из 636

Тема Ответов Просмотров Последнее сообщение
1 Важно: Подскажите новичку 4  Kula  [ 1 2 3  9 ]
815 19580 27-04-2021 14:14:01  Falconer06
2 Важно: Фото готовых работ выполненных на лазере 2  Администратор  [ 1 2 3  10 ]
905 70655 10-04-2021 18:53:11  Jek44
172 9917 22-06-2020 15:49:13  Vera
13 433 03-05-2021 10:38:23  Davlet
24 10271 26-04-2021 12:47:19  brainmo
95 14423 21-04-2021 16:00:12  Умняшка
107 5733 21-04-2021 11:09:49  Siga
39 3032 20-04-2021 21:08:30  Valera5609
192 5910 20-04-2021 12:54:35  Prisrak
239 25968 19-04-2021 10:20:09  Kinetic
3 86 15-04-2021 12:48:55  су-24
348 38064 10-04-2021 19:39:34  Jek44
6 124 02-04-2021 15:14:00  Valera5609
14 LaserCAD  Valentin25
10 542 01-04-2021 16:02:13  Сергей Одесса
15 Нужна помощь специалистов!  Мастер на все руки
31 1572 29-03-2021 12:18:15  Владимирская?
16 ortur laser master2-20w  Александр Сихаев
7 132 27-03-2021 21:25:23  Valera5609
1 48 24-03-2021 21:35:31  SNS
1 49 24-03-2021 16:56:07  Radiovolna
0 65 23-03-2021 13:17:34  headbI4
0 68 21-03-2021 13:18:28  headbI4
143 15925 16-03-2021 16:57:36  Valera5609
12 265 15-03-2021 23:02:45  ЮгРФ
23 выбор компрессора  ecto  [ 1 2 3 4 ]
376 16192 15-03-2021 22:39:49  ЮгРФ
2 51 15-03-2021 20:28:32  Rilov
0 82 15-03-2021 19:40:08  lazukin vlad
1 46 14-03-2021 20:10:46  3aBp
23 346 12-03-2021 17:17:15  Valera5609
3 81 10-03-2021 20:42:04  Valera5609
2 170 08-03-2021 09:12:17  Вассс
3 105 07-03-2021 22:42:59  Valera5609
349 20806 06-03-2021 02:16:05  CNCshnick
15 188 28-02-2021 05:46:23  Dark Knight
2 70 25-02-2021 23:08:23  комса45
34 AutoLaser и TL-403CB  SmileCat  [ 1 2 ]
174 6673 25-02-2021 18:48:56  musicman3
0 53 25-02-2021 13:02:09  meglauk
0 62 22-02-2021 04:58:55  Фом
5 290 18-02-2021 13:15:29  ydav75
15 411 18-02-2021 12:19:55  ydav75
39 RDworks и Autocad  Nimrod94
4 90 12-02-2021 13:43:46  Valera5609
3 102 10-02-2021 19:08:26  agronom_26
248 33079 05-02-2021 17:50:48  Valera5609
7 132 02-02-2021 09:40:03  Dark Night
3 91 28-01-2021 12:04:03  Valera5609
44 Вопрос по рдворкс  Тимур Гильманов
4 182 26-01-2021 09:54:53  AlexiAlexiAlexi
19 1017 26-01-2021 01:37:16  AlexiAlexiAlexi
22 712 25-01-2021 13:20:58  DeniskaUSSR
10 266 19-01-2021 09:06:39  Silvermilenium_
48 Нужен совет  AlekssnderKuznetsov
15 218 16-01-2021 17:34:08  Valera5609
0 49 22-12-2020 22:53:47  nuriiix
2 117 18-12-2020 00:32:20  Kusss
3 158 13-12-2020 16:01:45  Жмурик
0 82 13-12-2020 13:16:01  Michelinbrat
5 491 10-12-2020 02:03:50  bart68rus
13 1261 08-12-2020 21:04:21  Valera5609
51 2320 08-12-2020 12:49:37  Alex_UnDeR
12 668 07-12-2020 11:04:01  Valera5609
29 345 03-12-2020 21:35:55  anvaleriya
3 89 02-12-2020 16:00:09  Outsider
72 1618 02-12-2020 13:00:09  Kuz
60 Trocen vs RUIDA  ptolik
12 1442 27-11-2020 16:28:06  Cergio
4 302 27-11-2020 15:35:42  CNCshnick
3 145 27-11-2020 03:12:56  CNCshnick
63 RDWorksV8 в CorelDRAW X8  bartilord  [ 1 2 ]
174 17183 27-11-2020 00:37:40  djbratislav
11 108 22-11-2020 15:06:45  Valera5609
1 99 19-11-2020 12:59:21  ilya37rus
1 105 19-11-2020 09:30:35  RaysLightsaber
105 6782 17-11-2020 22:18:53  Valera5609
1 117 16-11-2020 05:17:54  Олександр Га Столяр
1 126 15-11-2020 15:20:17  Дмитрий Шестак
3 486 15-11-2020 15:17:35  Дмитрий Шестак
9 139 09-11-2020 18:45:49  pro100informatika
6 219 08-11-2020 03:54:35  CNCshnick
80 7418 04-11-2020 13:25:20  ilya37rus
12 148 27-10-2020 07:10:04  Jek44
37 746 24-10-2020 13:09:32  ilya37rus
4 252 24-10-2020 06:22:03  Фом
2 86 23-10-2020 18:05:16  ilya37rus
78 К40 погорелец  Шкодавод
3 176 19-10-2020 12:30:31  Шкодавод
2 116 10-10-2020 19:22:18  Valera5609
1 107 30-09-2020 22:19:22  SNS

Вы здесь » Форум клана ЧПУшников » Лазерные станки